Time;durP1;ratioP1;P1;durP2;ratioP2;P2;SDS_P1;SDS_P2;PMS_P1;PMS_P2;Temp;Humidity;BMP_temperature;BMP_pressure;BME280_temperature;BME280_humidity;BME280_pressure;Samples;Min_cycle;Max_cycle;Signal;HPM_P1;HPM_P2
2022/06/02 00:01:39;;;;;;;9.48;7.45;;;;;;;11.72;84.43;101610.22;20909845;28;20044;-67
2022/06/02 00:12:24;;;;;;;9.10;7.22;;;;;;;11.63;84.43;101629.03;20927170;28;20045;-67
2022/06/02 00:23:21;;;;;;;10.15;7.68;;;;;;;11.53;84.74;101627.84;20916337;28;20102;-67
2022/06/02 00:33:57;;;;;;;9.65;8.23;;;;;;;11.43;84.86;101623.16;20909759;28;20055;-67
2022/06/02 00:44:44;;;;;;;9.68;7.72;;;;;;;11.33;85.88;101633.31;20933310;28;20051;-67
2022/06/02 01:06:23;;;;;;;11.90;8.40;;;;;;;11.16;85.67;101651.63;20922593;28;20054;-67
2022/06/02 01:17:04;;;;;;;9.70;8.70;;;;;;;11.10;85.54;101649.34;20938725;28;20381;-67
2022/06/02 01:28:04;;;;;;;11.57;8.75;;;;;;;11.06;86.54;101649.59;20905731;28;20048;-67
2022/06/02 01:38:36;;;;;;;11.05;8.43;;;;;;;11.03;84.80;101650.63;20919821;28;20078;-67
2022/06/02 01:49:10;;;;;;;10.68;8.90;;;;;;;10.98;85.74;101668.25;20919474;28;20047;-68
2022/06/02 02:00:11;;;;;;;12.13;9.38;;;;;;;10.99;85.65;101664.72;20905831;28;20047;-67
2022/06/02 02:10:51;;;;;;;;;;;;;;;10.75;89.22;101671.25;20902096;28;20486;-67
2022/06/02 02:21:46;;;;;;;16.40;9.60;;;;;;;10.65;87.27;101675.22;20930931;28;19920;-67
2022/06/02 02:32:22;;;;;;;14.85;10.57;;;;;;;10.54;87.59;101680.16;20927898;28;20061;-67
2022/06/02 02:42:51;;;;;;;12.50;10.95;;;;;;;10.57;86.57;101672.19;20916319;28;20071;-67
2022/06/02 02:53:21;;;;;;;15.10;11.85;;;;;;;10.58;86.48;101668.66;20919370;28;20129;-67
2022/06/02 03:03:59;;;;;;;12.88;10.63;;;;;;;10.34;87.86;101673.41;20953767;28;20486;-67
2022/06/02 03:14:26;;;;;;;23.60;12.98;;;;;;;10.22;88.20;101679.22;20931492;28;20054;-67
2022/06/02 03:25:15;;;;;;;18.02;13.13;;;;;;;10.22;89.48;101694.84;20913254;28;20052;-67
2022/06/02 03:35:48;;;;;;;17.10;13.70;;;;;;;10.12;89.42;101693.63;20900795;28;20043;-68
2022/06/02 03:46:36;;;;;;;24.98;14.38;;;;;;;9.98;89.53;101706.44;20904244;28;20049;-67
2022/06/02 03:57:12;;;;;;;16.23;12.90;;;;;;;10.04;89.21;101717.44;20934399;28;20044;-69
2022/06/02 04:08:03;;;;;;;15.70;12.63;;;;;;;10.13;89.12;101717.00;20939841;28;20036;-68
2022/06/02 04:18:56;;;;;;;15.43;11.43;;;;;;;10.18;89.33;101724.63;20938022;28;20408;-67
2022/06/02 04:29:58;;;;;;;13.57;11.00;;;;;;;10.29;88.12;101736.19;20913262;28;20052;-67
2022/06/02 04:40:26;;;;;;;13.70;10.63;;;;;;;10.47;87.33;101744.88;20919191;28;20489;-68
2022/06/02 04:51:21;;;;;;;11.55;9.18;;;;;;;10.82;87.48;101757.84;20902517;28;20049;-68
2022/06/02 05:01:50;;;;;;;11.45;8.32;;;;;;;11.05;84.78;101774.00;20916583;28;20052;-67
2022/06/02 05:12:41;;;;;;;11.45;7.57;;;;;;;11.23;85.17;101780.84;20911103;28;20388;-67
2022/06/02 05:23:11;;;;;;;12.67;7.27;;;;;;;11.39;83.21;101794.81;20914237;28;20051;-69
2022/06/02 05:33:44;;;;;;;11.80;6.47;;;;;;;11.71;82.74;101791.38;20914995;28;20041;-67
2022/06/02 05:44:25;;;;;;;9.52;5.50;;;;;;;12.03;82.36;101812.19;20926346;28;20042;-67
2022/06/02 05:54:52;;;;;;;8.60;5.20;;;;;;;12.25;81.20;101827.53;20908453;28;20048;-65
2022/06/02 06:05:23;;;;;;;7.60;4.93;;;;;;;12.36;80.05;101838.28;20904506;28;20041;-68
2022/06/02 06:15:53;;;;;;;7.07;3.72;;;;;;;12.66;80.28;101843.44;20914851;28;20382;-65
2022/06/02 06:26:26;;;;;;;6.78;3.42;;;;;;;12.87;77.98;101839.59;20919181;28;20413;-65
2022/06/02 06:37:21;;;;;;;3.58;2.67;;;;;;;13.25;79.11;101851.31;20916749;28;20059;-66
2022/06/02 06:47:49;;;;;;;4.05;2.60;;;;;;;13.49;76.75;101847.25;20915049;28;20408;-66
2022/06/02 06:58:23;;;;;;;3.28;2.40;;;;;;;13.72;76.85;101844.06;20901534;28;20045;-65
2022/06/02 07:09:02;;;;;;;2.90;2.05;;;;;;;14.05;76.76;101855.09;20905079;28;20499;-66
2022/06/02 07:19:40;;;;;;;3.08;1.90;;;;;;;14.22;75.18;101868.03;20913032;28;20100;-67
2022/06/02 07:30:07;;;;;;;5.60;1.80;;;;;;;14.47;74.27;101876.88;20929489;28;20049;-66
2022/06/02 07:40:47;;;;;;;2.35;1.58;;;;;;;14.52;73.68;101886.13;20929082;28;20061;-67
2022/06/02 07:51:26;;;;;;;3.45;1.60;;;;;;;14.60;73.10;101891.72;20935937;28;20532;-66
2022/06/02 08:02:27;;;;;;;2.13;1.50;;;;;;;14.84;72.24;101897.16;20924649;28;20561;-66
2022/06/02 08:12:56;;;;;;;2.63;1.20;;;;;;;14.97;71.86;101908.56;20932648;28;20064;-66
2022/06/02 08:23:24;;;;;;;2.60;1.35;;;;;;;15.33;70.27;101911.44;20932042;28;20413;-66
2022/06/02 08:34:12;;;;;;;4.90;1.35;;;;;;;15.37;68.49;101929.50;20898242;28;20523;-66
2022/06/02 08:44:52;;;;;;;2.33;1.45;;;;;;;15.39;70.43;101940.75;20930838;28;20046;-67
2022/06/02 08:55:53;;;;;;;4.17;1.77;;;;;;;15.51;69.07;101947.81;20912936;28;20156;-67
2022/06/02 09:06:42;;;;;;;2.67;1.73;;;;;;;15.53;70.80;101962.53;20913776;28;20041;-67
2022/06/02 09:17:27;;;;;;;4.47;1.40;;;;;;;15.50;68.97;101964.53;20926582;28;20140;-67
2022/06/02 09:28:26;;;;;;;2.10;1.42;;;;;;;16.04;67.46;101979.19;20921445;28;20049;-67
2022/06/02 09:39:16;;;;;;;6.90;1.13;;;;;;;16.32;63.86;101979.00;20935739;28;20059;-67
2022/06/02 09:50:00;;;;;;;2.43;1.50;;;;;;;16.61;64.36;101987.38;20921175;28;20045;-67
2022/06/02 10:00:39;;;;;;;3.75;1.40;;;;;;;16.74;65.26;101987.34;20925948;28;20045;-69
2022/06/02 10:11:19;;;;;;;2.13;1.27;;;;;;;16.67;66.81;102002.75;20913441;28;20045;-68
2022/06/02 10:21:46;;;;;;;2.95;1.20;;;;;;;16.79;67.58;101996.59;20908717;28;20095;-67
2022/06/02 10:32:32;;;;;;;2.67;1.20;;;;;;;17.27;63.19;102008.88;20925444;28;20052;-67
2022/06/02 10:43:14;;;;;;;0.80;0.80;;;;;;;17.23;65.05;102017.09;20909836;28;20128;-67
2022/06/02 10:53:48;;;;;;;2.63;1.15;;;;;;;17.36;62.89;102017.94;20943119;28;20048;-67
2022/06/02 11:04:48;;;;;;;2.45;1.10;;;;;;;18.08;59.09;102005.28;20910474;28;20044;-68
2022/06/02 11:15:44;;;;;;;2.22;1.02;;;;;;;17.84;64.23;102015.91;20938252;28;20048;-69
2022/06/02 11:26:22;;;;;;;2.15;0.90;;;;;;;17.64;65.58;102005.19;20939296;28;20048;-67
2022/06/02 11:36:50;;;;;;;4.57;1.10;;;;;;;17.88;62.75;102000.72;20915001;28;20044;-66
2022/06/02 11:47:27;;;;;;;3.35;1.13;;;;;;;17.95;65.56;102007.19;20942279;28;20501;-69
2022/06/02 11:58:12;;;;;;;2.88;1.20;;;;;;;17.68;64.44;102006.66;20923722;28;20055;-69
2022/06/02 12:08:52;;;;;;;3.67;1.33;;;;;;;18.25;65.96;101989.03;20898145;28;20524;-68
2022/06/02 12:19:46;;;;;;;2.57;1.20;;;;;;;18.14;60.60;101991.66;20920411;28;20051;-68
2022/06/02 12:30:17;;;;;;;3.22;1.05;;;;;;;18.06;63.52;101983.47;20922339;28;20048;-66
2022/06/02 12:40:50;;;;;;;2.93;1.00;;;;;;;18.25;62.76;101983.75;20905983;28;20049;-65
2022/06/02 12:51:21;;;;;;;2.60;1.10;;;;;;;18.21;67.04;101992.84;20920181;28;20413;-70
2022/06/02 13:02:08;;;;;;;4.68;1.10;;;;;;;18.36;62.90;101986.38;20877836;28;1055819;-67
2022/06/02 13:13:14;;;;;;;2.53;0.80;;;;;;;18.45;54.74;101981.22;20904372;28;20040;-67
2022/06/02 13:24:13;;;;;;;2.35;0.93;;;;;;;18.47;56.49;101990.75;20923905;28;20037;-67
2022/06/02 13:35:12;;;;;;;0.90;0.80;;;;;;;18.73;55.42;101989.50;20911382;28;20604;-66
2022/06/02 13:45:59;;;;;;;1.05;0.80;;;;;;;18.54;64.38;101996.38;20934617;28;20139;-67
2022/06/02 14:07:24;;;;;;;2.78;0.85;;;;;;;18.70;60.32;101986.28;20921110;28;20048;-67
2022/06/02 14:18:04;;;;;;;2.15;0.82;;;;;;;18.84;63.83;101981.53;20909798;28;20045;-67
2022/06/02 14:28:58;;;;;;;7.93;0.85;;;;;;;19.05;54.98;101976.31;20909725;28;20056;-67
2022/06/02 14:39:52;;;;;;;1.60;0.70;;;;;;;19.25;55.33;101973.75;20921442;28;20070;-67
2022/06/02 14:50:28;;;;;;;4.85;1.05;;;;;;;19.28;62.76;101984.09;20903823;28;20037;-69
2022/06/02 15:01:25;;;;;;;1.45;0.80;;;;;;;19.20;55.57;101981.25;20919240;28;20049;-68
2022/06/02 15:12:08;;;;;;;2.05;0.88;;;;;;;19.34;55.59;101988.88;20928851;28;20477;-68
2022/06/02 15:23:03;;;;;;;1.60;0.82;;;;;;;19.54;53.56;101980.13;20901101;28;20439;-68
2022/06/02 15:33:56;;;;;;;3.15;0.80;;;;;;;19.33;57.30;101992.50;20910821;28;20045;-68
2022/06/02 15:44:42;;;;;;;2.47;0.77;;;;;;;19.50;58.93;101989.31;20901532;28;20048;-68
2022/06/02 15:55:22;;;;;;;1.70;0.98;;;;;;;19.62;61.75;101994.38;20893911;28;20077;-69
2022/06/02 16:06:22;;;;;;;1.33;0.80;;;;;;;19.26;55.53;101986.00;20915376;28;20060;-68
2022/06/02 16:17:05;;;;;;;5.50;0.70;;;;;;;19.93;53.92;101971.50;20912396;28;20144;-67
2022/06/02 16:28:04;;;;;;;2.75;0.80;;;;;;;20.79;55.34;101974.41;20926015;28;20037;-68
2022/06/02 16:38:51;;;;;;;1.35;0.60;;;;;;;21.04;52.07;101979.19;20901510;28;20063;-68
2022/06/02 16:49:43;;;;;;;2.00;0.82;;;;;;;20.85;57.00;101979.16;20912637;28;20513;-68
2022/06/02 17:00:12;;;;;;;2.22;0.73;;;;;;;21.19;62.88;101993.72;20921150;28;20132;-68
2022/06/02 17:11:06;;;;;;;1.40;0.60;;;;;;;21.19;61.01;101983.13;20918176;28;20048;-68
2022/06/02 17:22:04;;;;;;;3.60;0.93;;;;;;;21.19;53.72;101982.28;20940313;28;20777;-69
2022/06/02 17:32:33;;;;;;;1.48;0.68;;;;;;;20.96;67.05;101986.16;20907783;28;20045;-69
2022/06/02 17:43:29;;;;;;;1.80;0.63;;;;;;;20.61;52.59;101981.31;20898755;28;20048;-68
2022/06/02 17:54:26;;;;;;;2.53;0.70;;;;;;;20.38;56.71;101974.50;20900180;28;20064;-68
2022/06/02 18:04:53;;;;;;;1.63;0.70;;;;;;;19.90;61.06;101983.16;20946958;28;20044;-68
2022/06/02 18:15:40;;;;;;;3.85;0.70;;;;;;;19.68;59.92;101977.16;20902545;28;20495;-69
2022/06/02 18:26:13;;;;;;;4.18;0.93;;;;;;;19.54;56.46;101978.34;20915363;28;20081;-68
2022/06/02 18:36:59;;;;;;;5.03;1.42;;;;;;;19.15;61.00;101978.13;20903717;28;20052;-68
2022/06/02 18:47:50;;;;;;;4.53;1.33;;;;;;;18.70;59.61;101989.75;20915717;28;20405;-68
2022/06/02 18:58:55;;;;;;;3.20;1.15;;;;;;;18.27;60.15;101987.13;20914466;28;20091;-68
2022/06/02 19:20:56;;;;;;;4.05;1.02;;;;;;;17.60;62.86;102023.06;20893971;28;20053;-67
2022/06/02 19:31:30;;;;;;;5.03;1.20;;;;;;;17.43;65.70;102030.53;20936655;28;20485;-70
2022/06/02 19:42:29;;;;;;;3.33;1.10;;;;;;;17.13;63.96;102045.06;20935308;28;20463;-67
2022/06/02 19:53:09;;;;;;;3.17;1.40;;;;;;;16.92;64.68;102049.25;20921951;28;20062;-67
2022/06/02 20:03:39;;;;;;;6.40;1.47;;;;;;;16.70;67.33;102059.63;20921015;28;20528;-70
2022/06/02 20:14:08;;;;;;;5.05;1.35;;;;;;;16.52;69.69;102068.78;20935690;28;20041;-69
2022/06/02 20:24:41;;;;;;;4.40;1.50;;;;;;;16.25;68.92;102072.47;20920245;28;20040;-67
2022/06/02 20:35:14;;;;;;;3.28;1.60;;;;;;;16.16;68.93;102062.53;20913079;28;20148;-67
2022/06/02 20:45:56;;;;;;;6.45;1.50;;;;;;;16.04;69.72;102064.22;20917052;28;20037;-67
2022/06/02 20:56:33;;;;;;;7.13;1.65;;;;;;;15.79;69.29;102073.84;20891500;28;20056;-68
2022/06/02 21:07:00;;;;;;;6.32;1.80;;;;;;;15.60;70.53;102073.38;20937250;28;20477;-68
2022/06/02 21:17:33;;;;;;;4.18;1.60;;;;;;;15.45;70.85;102063.84;20917043;28;20076;-70
2022/06/02 21:28:05;;;;;;;4.55;1.95;;;;;;;15.24;70.40;102056.47;20920824;28;20059;-69
2022/06/02 21:38:32;;;;;;;5.47;1.67;;;;;;;15.08;71.46;102063.66;20912166;28;20052;-69
2022/06/02 21:49:15;;;;;;;5.63;1.98;;;;;;;15.01;70.66;102055.31;20883081;28;20058;-69
2022/06/02 21:59:46;;;;;;;4.82;2.00;;;;;;;14.89;71.44;102058.72;20916747;28;20040;-69
2022/06/02 22:10:45;;;;;;;4.15;1.77;;;;;;;14.75;71.57;102048.25;20917552;28;20067;-69
2022/06/02 22:21:11;;;;;;;3.90;1.80;;;;;;;14.65;72.07;102055.00;20905786;28;20516;-66
2022/06/02 22:32:10;;;;;;;5.28;2.08;;;;;;;14.53;72.83;102058.41;20914159;28;20489;-67
2022/06/02 22:43:03;;;;;;;7.03;2.17;;;;;;;14.43;73.23;102058.19;20909545;28;20369;-67
2022/06/02 22:53:49;;;;;;;4.00;2.97;;;;;;;14.28;75.05;102064.34;20914947;28;20438;-67
2022/06/02 23:04:27;;;;;;;8.60;3.20;;;;;;;14.18;74.98;102063.22;20930926;28;20043;-67
2022/06/02 23:14:54;;;;;;;7.32;3.25;;;;;;;14.01;75.33;102058.09;20915387;28;20547;-67
2022/06/02 23:25:39;;;;;;;11.73;3.38;;;;;;;13.94;76.08;102057.63;20939815;28;20409;-67
2022/06/02 23:36:13;;;;;;;7.68;3.67;;;;;;;13.86;76.67;102057.25;20927063;28;20047;-67
2022/06/02 23:46:45;;;;;;;5.93;3.35;;;;;;;13.77;76.58;102054.31;20956732;28;20043;-67
2022/06/02 23:57:19;;;;;;;7.97;4.07;;;;;;;13.66;77.07;102054.91;20924327;28;20045;-67
